Date,TemperatureHighF,TemperatureAvgF,TemperatureLowF,DewpointHighF,DewpointAvgF,DewpointLowF,HumidityHigh,HumidityAvg,HumidityLow,PressureMaxIn,PressureMinIn,WindSpeedMaxMPH,WindSpeedAvgMPH,GustSpeedMaxMPH,PrecipitationSumIn
2013-11-1,78.3,67.9,61.9,69.2,59.2,51.8,100,77,42,29.97,29.83,8,1,10,0.08
2013-11-2,71.1,63.0,53.2,63.2,49.3,39.4,97,64,39,30.24,29.94,12,4,22,0.01
2013-11-3,65.7,57.2,50.4,45.4,42.8,39.4,82,60,46,30.24,30.12,8,2,10,0.00
2013-11-4,75.6,65.4,50.4,59.1,54.0,45.5,88,68,54,30.15,30.06,15,7,18,0.00
2013-11-5,77.9,71.7,66.7,68.4,63.7,55.5,90,76,60,30.09,30.00,17,7,18,0.00
2013-11-6,81.5,71.4,54.9,73.3,65.2,45.1,99,82,59,30.27,30.00,15,4,15,0.18
2013-11-7,66.0,55.1,46.9,45.3,40.8,37.7,79,60,40,30.42,30.24,14,6,17,0.00
2013-11-8,65.1,55.7,47.5,46.9,40.7,37.4,78,58,42,30.42,30.21,11,3,15,0.00
2013-11-9,69.6,59.9,50.7,50.0,46.3,41.9,78,62,48,30.24,30.18,8,2,9,0.00
2013-11-10,73.0,60.9,50.9,54.8,50.1,45.8,86,69,51,30.33,30.21,8,2,9,0.00
2013-11-11,73.9,62.3,53.1,53.2,50.5,48.5,86,67,46,30.30,30.15,6,1,8,0.00
2013-11-12,73.0,57.6,42.6,53.7,46.7,28.4,87,68,49,30.59,30.24,18,6,21,0.00
2013-11-13,56.1,43.5,34.0,32.2,27.2,22.5,70,53,40,30.65,30.45,12,5,17,0.00
2013-11-14,60.4,46.9,33.8,40.7,34.3,27.3,81,62,46,30.45,30.12,6,1,9,0.00
2013-11-15,77.4,63.7,50.4,64.0,53.0,38.2,93,69,52,30.12,29.94,10,3,11,0.00
2013-11-16,77.7,73.0,65.7,77.6,69.4,63.7,100,89,66,29.97,29.83,14,5,20,0.00
2013-11-17,83.7,78.7,75.7,79.9,74.0,67.3,100,87,59,29.94,29.83,15,5,15,0.04
2013-11-18,77.7,72.0,60.6,77.7,58.7,40.8,100,67,38,30.12,29.94,11,3,14,0.00
2013-11-19,67.8,59.5,52.7,44.9,40.4,35.3,58,50,40,30.18,30.06,9,3,13,0.00
2013-11-20,70.2,60.3,46.6,61.3,46.3,32.8,85,60,50,30.09,29.97,15,4,15,0.00
2013-11-21,76.6,71.5,66.2,74.1,66.4,59.6,100,85,63,30.12,30.00,16,6,16,0.00
2013-11-22,75.7,67.9,54.7,75.6,67.1,53.6,100,97,76,30.27,30.09,12,4,14,0.10
2013-11-23,56.8,51.1,44.4,56.8,47.0,34.8,100,86,68,30.42,30.24,18,7,20,0.02
2013-11-24,50.7,44.4,38.8,34.4,28.7,25.5,68,54,45,30.45,30.33,14,6,17,4.20
2013-11-25,46.4,43.2,38.7,46.2,38.7,27.3,100,86,53,30.33,29.94,12,5,17,1.64
2013-11-26,45.7,44.2,42.1,45.1,43.2,39.4,100,96,89,30.24,29.94,13,4,17,0.82
2013-11-27,49.6,40.6,33.8,42.0,30.6,26.5,94,69,45,30.47,30.24,10,2,13,0.00
2013-11-28,52.3,40.2,32.7,36.2,30.6,27.9,87,70,50,30.53,30.42,8,1,10,0.00
2013-11-29,60.6,43.7,32.2,40.3,31.4,27.8,90,65,39,30.56,30.45,6,1,10,0.00
2013-11-30,67.6,51.7,37.4,45.9,40.6,31.7,87,68,42,30.45,30.27,6,1,8,0.00